Time;durP1;ratioP1;P1;durP2;ratioP2;P2;SDS_P1;SDS_P2;PMS_P1;PMS_P2;Temp;Humidity;BMP_temperature;BMP_pressure;BME280_temperature;BME280_humidity;BME280_pressure;Samples;Min_cycle;Max_cycle;Signal;HPM_P1;HPM_P2
2022/01/24 00:00:30;;;;;;;10.70;6.30;;;;;;;;;;5016917;28;20029;-80
2022/01/24 00:02:55;;;;;;;11.75;6.40;;;;;;;;;;5016915;28;20030;-81
2022/01/24 00:05:21;;;;;;;10.77;6.13;;;;;;;;;;5016830;28;20022;-81
2022/01/24 00:07:46;;;;;;;9.93;5.82;;;;;;;;;;5016856;28;20545;-80
2022/01/24 00:10:20;;;;;;;10.25;5.85;;;;;;;;;;5016167;28;20018;-80
2022/01/24 00:13:19;;;;;;;11.05;6.22;;;;;;;;;;5016999;28;20041;-80
2022/01/24 00:16:02;;;;;;;11.38;6.63;;;;;;;;;;5017007;28;20034;-81
2022/01/24 00:18:34;;;;;;;11.15;6.43;;;;;;;;;;4998395;28;20033;-81
2022/01/24 00:29:26;;;;;;;10.40;6.20;;;;;;;;;;4972629;28;20034;-83
2022/01/24 00:31:54;;;;;;;11.68;6.78;;;;;;;;;;5016105;28;20050;-81
2022/01/24 00:34:20;;;;;;;12.40;6.30;;;;;;;;;;4997931;28;20574;-80
2022/01/24 00:36:48;;;;;;;12.00;6.55;;;;;;;;;;4998010;28;20052;-80
2022/01/24 00:39:14;;;;;;;10.40;6.22;;;;;;;;;;5015707;28;20022;-82
2022/01/24 00:41:49;;;;;;;10.63;6.47;;;;;;;;;;4997795;28;20116;-81
2022/01/24 00:44:43;;;;;;;12.30;7.65;;;;;;;;;;5014991;28;20037;-80
2022/01/24 00:47:45;;;;;;;8.63;5.50;;;;;;;;;;5016448;28;20064;-81
2022/01/24 00:53:11;;;;;;;;;;;;;;;;;;4980130;28;20034;-82
2022/01/24 00:55:36;;;;;;;10.52;6.03;;;;;;;;;;5015237;28;20013;-80
2022/01/24 00:58:01;;;;;;;10.13;5.80;;;;;;;;;;5015716;28;20095;-81
2022/01/24 01:00:27;;;;;;;10.10;5.80;;;;;;;;;;5016188;28;20026;-82
2022/01/24 01:02:52;;;;;;;10.35;5.97;;;;;;;;;;4997797;28;20040;-82
2022/01/24 01:05:38;;;;;;;11.10;5.90;;;;;;;;;;5016238;28;20026;-79
2022/01/24 01:18:45;;;;;;;11.00;6.35;;;;;;;;;;5015665;28;20083;-79
2022/01/24 01:21:12;;;;;;;11.80;6.53;;;;;;;;;;5015875;28;20030;-82
2022/01/24 01:23:43;;;;;;;11.73;6.80;;;;;;;;;;4997924;28;20025;-82
2022/01/24 01:26:17;;;;;;;12.77;6.85;;;;;;;;;;4998069;28;20022;-80
2022/01/24 01:28:45;;;;;;;;;;;;;;;;;;4998547;28;20032;-82
2022/01/24 01:31:25;;;;;;;10.70;5.95;;;;;;;;;;5015659;28;19913;-82
2022/01/24 01:34:10;;;;;;;12.57;7.07;;;;;;;;;;5015416;28;20029;-81
2022/01/24 01:37:03;;;;;;;10.70;6.07;;;;;;;;;;5015919;28;20022;-80
2022/01/24 01:39:46;;;;;;;11.43;6.18;;;;;;;;;;5014848;28;20491;-81
2022/01/24 01:55:51;;;;;;;11.32;6.85;;;;;;;;;;5017058;28;20124;-81
2022/01/24 01:58:20;;;;;;;10.10;5.90;;;;;;;;;;5019187;28;20459;-81
2022/01/24 02:00:49;;;;;;;11.38;6.13;;;;;;;;;;5019225;28;20078;-82
2022/01/24 02:03:15;;;;;;;11.55;5.90;;;;;;;;;;5018830;28;20080;-82
2022/01/24 02:05:41;;;;;;;12.68;6.20;;;;;;;;;;5019339;28;20026;-82
2022/01/24 02:08:06;;;;;;;9.07;5.82;;;;;;;;;;5018807;28;20034;-81
2022/01/24 02:10:34;;;;;;;12.55;5.82;;;;;;;;;;5018498;28;20057;-80
2022/01/24 02:13:00;;;;;;;10.20;5.97;;;;;;;;;;5018681;28;20022;-82
2022/01/24 02:21:08;;;;;;;7.05;4.68;;;;;;;;;;5019147;28;20101;-81
2022/01/24 02:26:03;;;;;;;14.45;4.75;;;;;;;;;;5019040;28;20756;-81
2022/01/24 02:28:40;;;;;;;9.93;5.45;;;;;;;;;;5018646;28;20073;-81
2022/01/24 02:33:50;;;;;;;9.23;5.45;;;;;;;;;;5018460;28;20399;-81
2022/01/24 02:36:24;;;;;;;12.93;5.15;;;;;;;;;;5018019;28;20025;-81
2022/01/24 02:39:07;;;;;;;9.35;5.65;;;;;;;;;;5000928;28;20022;-82
2022/01/24 02:49:30;;;;;;;9.30;4.93;;;;;;;;;;5017379;28;20040;-80
2022/01/24 02:52:04;;;;;;;8.70;4.82;;;;;;;;;;5018888;28;20032;-82
2022/01/24 02:54:32;;;;;;;14.05;5.15;;;;;;;;;;5017618;28;20105;-81
2022/01/24 02:56:57;;;;;;;9.85;4.90;;;;;;;;;;5017846;28;20030;-83
2022/01/24 02:59:23;;;;;;;8.93;4.63;;;;;;;;;;5018453;28;20415;-81
2022/01/24 03:01:48;;;;;;;9.73;4.75;;;;;;;;;;5018721;28;20463;-81
2022/01/24 03:04:14;;;;;;;8.05;4.85;;;;;;;;;;5017574;28;20383;-81
2022/01/24 03:06:39;;;;;;;11.75;5.22;;;;;;;;;;5016977;28;20061;-81
2022/01/24 03:09:07;;;;;;;9.45;5.50;;;;;;;;;;5016499;28;20109;-82
2022/01/24 03:11:57;;;;;;;10.68;5.10;;;;;;;;;;4999752;28;20045;-81
2022/01/24 03:14:26;;;;;;;8.65;4.57;;;;;;;;;;5017295;28;20026;-81
2022/01/24 03:16:52;;;;;;;7.72;4.47;;;;;;;;;;5017929;28;20073;-81
2022/01/24 03:19:17;;;;;;;8.60;4.65;;;;;;;;;;5018244;28;20487;-82
2022/01/24 03:21:43;;;;;;;8.50;4.90;;;;;;;;;;5017837;28;20037;-81
2022/01/24 03:24:10;;;;;;;7.72;4.10;;;;;;;;;;5018124;28;20026;-79
2022/01/24 03:26:35;;;;;;;8.13;5.25;;;;;;;;;;5018157;28;20026;-81
2022/01/24 03:29:00;;;;;;;10.13;4.72;;;;;;;;;;5018350;28;20038;-81
2022/01/24 03:31:26;;;;;;;8.00;4.68;;;;;;;;;;5018615;28;20029;-83
2022/01/24 03:33:51;;;;;;;9.50;4.95;;;;;;;;;;5018092;28;20082;-82
2022/01/24 03:36:16;;;;;;;8.20;4.95;;;;;;;;;;5018140;28;20400;-80
2022/01/24 03:38:42;;;;;;;8.90;4.72;;;;;;;;;;5017817;28;20037;-82
2022/01/24 03:41:07;;;;;;;10.25;4.82;;;;;;;;;;5018867;28;20483;-80
2022/01/24 03:43:33;;;;;;;9.25;4.78;;;;;;;;;;5000257;28;20392;-81
2022/01/24 03:46:12;;;;;;;9.25;5.07;;;;;;;;;;5018113;28;20026;-80
2022/01/24 03:48:44;;;;;;;8.70;4.50;;;;;;;;;;5017570;28;20033;-80
2022/01/24 03:51:11;;;;;;;9.20;4.95;;;;;;;;;;5017755;28;20074;-81
2022/01/24 03:53:37;;;;;;;10.07;5.70;;;;;;;;;;5000068;28;20161;-82
2022/01/24 03:56:03;;;;;;;10.70;6.10;;;;;;;;;;5018055;28;20026;-81
2022/01/24 03:58:29;;;;;;;10.88;5.82;;;;;;;;;;5017812;28;20034;-82
2022/01/24 04:00:55;;;;;;;9.88;5.97;;;;;;;;;;5017574;28;20028;-81
2022/01/24 04:03:21;;;;;;;17.27;5.85;;;;;;;;;;5018169;28;20032;-79
2022/01/24 04:05:46;;;;;;;8.57;5.18;;;;;;;;;;5000112;28;20112;-82
2022/01/24 04:08:11;;;;;;;9.38;5.55;;;;;;;;;;4999997;28;20492;-82
2022/01/24 04:10:43;;;;;;;9.93;5.88;;;;;;;;;;5017142;28;20479;-81
2022/01/24 04:13:24;;;;;;;12.98;6.25;;;;;;;;;;5018227;28;20025;-82
2022/01/24 04:18:50;;;;;;;9.30;5.05;;;;;;;;;;5018075;28;20041;-80
2022/01/24 04:26:42;;;;;;;8.27;5.07;;;;;;;;;;5009518;28;20038;-81
2022/01/24 04:29:08;;;;;;;8.27;5.28;;;;;;;;;;5016661;28;20080;-80
2022/01/24 04:31:33;;;;;;;9.93;5.78;;;;;;;;;;5017119;28;20021;-82
2022/01/24 04:33:59;;;;;;;9.85;5.80;;;;;;;;;;5017578;28;20030;-82
2022/01/24 04:36:25;;;;;;;10.20;5.75;;;;;;;;;;4999475;28;20434;-81
2022/01/24 04:38:50;;;;;;;9.95;5.90;;;;;;;;;;5017514;28;20430;-80
2022/01/24 04:41:26;;;;;;;9.32;5.78;;;;;;;;;;5017251;28;20026;-82
2022/01/24 04:46:42;;;;;;;10.10;5.72;;;;;;;;;;5018090;28;20456;-81
2022/01/24 04:56:57;;;;;;;14.70;7.22;;;;;;;;;;5016974;28;20271;-80
2022/01/24 04:59:22;;;;;;;13.32;6.85;;;;;;;;;;5017164;28;20030;-81
2022/01/24 05:01:47;;;;;;;12.55;7.38;;;;;;;;;;5017124;28;20416;-81
2022/01/24 05:04:13;;;;;;;11.55;6.43;;;;;;;;;;4999039;28;20068;-81
2022/01/24 05:06:38;;;;;;;9.30;5.75;;;;;;;;;;5016386;28;20021;-80
2022/01/24 05:09:05;;;;;;;12.02;6.90;;;;;;;;;;5016336;28;20029;-81
2022/01/24 05:11:50;;;;;;;9.90;6.32;;;;;;;;;;4999905;28;20045;-80
2022/01/24 05:25:14;;;;;;;12.73;6.72;;;;;;;;;;5017941;28;20105;-81
2022/01/24 05:27:39;;;;;;;13.38;6.72;;;;;;;;;;5017165;28;20053;-80
2022/01/24 05:30:05;;;;;;;11.95;6.40;;;;;;;;;;5017923;28;20030;-81
2022/01/24 05:32:31;;;;;;;12.50;6.15;;;;;;;;;;5021702;28;20037;-81
2022/01/24 05:34:56;;;;;;;11.27;6.47;;;;;;;;;;5003930;28;20486;-81
2022/01/24 05:37:21;;;;;;;12.80;6.88;;;;;;;;;;5020702;28;20046;-81
2022/01/24 05:39:46;;;;;;;11.82;7.05;;;;;;;;;;5020550;28;20033;-81
2022/01/24 05:42:11;;;;;;;13.00;6.68;;;;;;;;;;5020286;28;20025;-80
2022/01/24 05:44:40;;;;;;;13.32;6.72;;;;;;;;;;5020583;28;20026;-80
2022/01/24 05:47:05;;;;;;;13.07;7.28;;;;;;;;;;5021129;28;20037;-80
2022/01/24 05:49:30;;;;;;;14.70;7.43;;;;;;;;;;5021180;28;20029;-81
2022/01/24 05:51:55;;;;;;;12.60;7.13;;;;;;;;;;5003553;28;20033;-80
2022/01/24 05:54:21;;;;;;;12.20;7.05;;;;;;;;;;5020515;28;20022;-81
2022/01/24 05:56:46;;;;;;;13.80;6.88;;;;;;;;;;5021081;28;20478;-81
2022/01/24 05:59:12;;;;;;;14.20;7.00;;;;;;;;;;5021322;28;20080;-81
2022/01/24 06:01:37;;;;;;;14.27;7.15;;;;;;;;;;5021276;28;20049;-81
2022/01/24 06:04:02;;;;;;;23.42;12.88;;;;;;;;;;5021383;28;20025;-81
2022/01/24 06:06:28;;;;;;;21.95;11.80;;;;;;;;;;5021232;28;20018;-82
2022/01/24 06:08:53;;;;;;;31.75;13.38;;;;;;;;;;5021177;28;20030;-81
2022/01/24 06:11:20;;;;;;;17.00;8.30;;;;;;;;;;5020822;28;20080;-81
2022/01/24 06:13:49;;;;;;;16.05;7.82;;;;;;;;;;5002401;28;20251;-82
2022/01/24 06:16:17;;;;;;;12.25;7.05;;;;;;;;;;5020431;28;20021;-81
2022/01/24 06:18:42;;;;;;;12.13;6.45;;;;;;;;;;5019618;28;20071;-81
2022/01/24 06:21:08;;;;;;;11.88;6.95;;;;;;;;;;5019039;28;20104;-81
2022/01/24 06:23:33;;;;;;;13.38;7.03;;;;;;;;;;5019242;28;20493;-80
2022/01/24 06:25:58;;;;;;;13.98;7.40;;;;;;;;;;5018881;28;20025;-79
2022/01/24 06:28:23;;;;;;;12.95;6.93;;;;;;;;;;5018875;28;20475;-81
2022/01/24 06:30:49;;;;;;;12.33;7.37;;;;;;;;;;5018868;28;20026;-80
2022/01/24 06:33:14;;;;;;;13.18;6.68;;;;;;;;;;5001291;28;20606;-81
2022/01/24 06:35:45;;;;;;;12.32;6.97;;;;;;;;;;5018733;28;20028;-81
2022/01/24 06:38:11;;;;;;;12.10;6.72;;;;;;;;;;5018496;28;20422;-81
2022/01/24 06:40:36;;;;;;;14.25;7.75;;;;;;;;;;5018109;28;20534;-81
2022/01/24 06:43:03;;;;;;;14.73;6.97;;;;;;;;;;5018815;28;20057;-82
2022/01/24 06:45:28;;;;;;;13.63;7.40;;;;;;;;;;5018973;28;20030;-80
2022/01/24 06:47:53;;;;;;;16.10;8.27;;;;;;;;;;5018674;28;20018;-80
2022/01/24 06:50:18;;;;;;;14.55;7.72;;;;;;;;;;5017714;28;20025;-80
2022/01/24 06:52:45;;;;;;;14.80;8.10;;;;;;;;;;5018790;28;20030;-81
2022/01/24 06:55:11;;;;;;;17.30;8.93;;;;;;;;;;5000840;28;20032;-81
2022/01/24 06:57:39;;;;;;;14.82;8.52;;;;;;;;;;5002004;28;20116;-81
2022/01/24 07:00:05;;;;;;;15.32;8.95;;;;;;;;;;5018998;28;20423;-82
2022/01/24 07:02:30;;;;;;;14.32;8.10;;;;;;;;;;5002053;28;20018;-80
2022/01/24 07:04:56;;;;;;;17.13;8.73;;;;;;;;;;5018911;28;20038;-81
2022/01/24 07:07:21;;;;;;;15.05;8.57;;;;;;;;;;5001801;28;20029;-81
2022/01/24 07:09:47;;;;;;;16.60;8.63;;;;;;;;;;5001598;28;20053;-81
2022/01/24 07:12:12;;;;;;;17.65;8.75;;;;;;;;;;5001289;28;20026;-80
2022/01/24 07:14:39;;;;;;;17.10;8.20;;;;;;;;;;5001648;28;20120;-80
2022/01/24 07:17:29;;;;;;;16.17;8.23;;;;;;;;;;5018484;28;20034;-81
2022/01/24 07:19:54;;;;;;;15.45;9.07;;;;;;;;;;5018592;28;20021;-81
2022/01/24 07:22:20;;;;;;;14.88;8.38;;;;;;;;;;5018614;28;20049;-81
2022/01/24 07:24:45;;;;;;;16.98;8.73;;;;;;;;;;5017494;28;20052;-82
2022/01/24 07:27:10;;;;;;;16.10;8.60;;;;;;;;;;5017491;28;20473;-81
2022/01/24 07:29:36;;;;;;;19.95;10.20;;;;;;;;;;5017862;28;20030;-80
2022/01/24 07:32:02;;;;;;;13.32;8.00;;;;;;;;;;5000621;28;20390;-81
2022/01/24 07:34:30;;;;;;;17.60;8.55;;;;;;;;;;5017353;28;20022;-81
2022/01/24 07:36:55;;;;;;;15.15;7.68;;;;;;;;;;5018260;28;20022;-81
2022/01/24 07:39:21;;;;;;;15.00;8.13;;;;;;;;;;4999451;28;20039;-80
2022/01/24 07:41:47;;;;;;;12.70;7.55;;;;;;;;;;4999825;28;20026;-82
2022/01/24 07:44:14;;;;;;;13.80;8.05;;;;;;;;;;4999931;28;20113;-80
2022/01/24 07:46:40;;;;;;;13.98;7.95;;;;;;;;;;5000068;28;20030;-83
2022/01/24 07:49:10;;;;;;;15.07;8.27;;;;;;;;;;4999568;28;20084;-81
2022/01/24 07:51:35;;;;;;;15.27;8.38;;;;;;;;;;5017544;28;20360;-81
2022/01/24 07:54:01;;;;;;;17.17;8.50;;;;;;;;;;5016630;28;20033;-79
2022/01/24 07:56:26;;;;;;;16.58;7.93;;;;;;;;;;5000353;28;20026;-79
2022/01/24 07:58:51;;;;;;;15.20;8.25;;;;;;;;;;4999486;28;20022;-79
2022/01/24 08:01:18;;;;;;;14.63;8.00;;;;;;;;;;4999552;28;20448;-80
2022/01/24 08:03:44;;;;;;;14.75;8.40;;;;;;;;;;5000445;28;20021;-81
2022/01/24 08:06:09;;;;;;;18.67;8.65;;;;;;;;;;4999139;28;20542;-79
2022/01/24 08:08:35;;;;;;;15.07;8.35;;;;;;;;;;4999027;28;20522;-80
2022/01/24 08:11:00;;;;;;;14.57;8.18;;;;;;;;;;5016818;28;20080;-81
2022/01/24 08:13:26;;;;;;;18.88;8.90;;;;;;;;;;5000001;28;20537;-82
2022/01/24 08:15:51;;;;;;;19.00;8.45;;;;;;;;;;4999724;28;20026;-80
2022/01/24 08:18:17;;;;;;;15.13;7.68;;;;;;;;;;5017968;28;20060;-81
2022/01/24 08:20:42;;;;;;;13.80;7.22;;;;;;;;;;5000172;28;20443;-80
2022/01/24 08:23:15;;;;;;;16.58;7.35;;;;;;;;;;4999384;28;20487;-81
2022/01/24 08:25:40;;;;;;;12.27;7.18;;;;;;;;;;4999579;28;20026;-81
2022/01/24 08:28:06;;;;;;;12.00;6.70;;;;;;;;;;5016824;28;20037;-81
2022/01/24 08:30:31;;;;;;;13.98;7.22;;;;;;;;;;5016524;28;20030;-81
2022/01/24 08:33:00;;;;;;;13.30;7.88;;;;;;;;;;5000140;28;20056;-82
2022/01/24 08:39:19;;;;;;;15.98;7.22;;;;;;;;;;5018837;28;20077;-81
2022/01/24 08:43:04;;;;;;;;;;;;;;;;;;;;;
2022/01/24 08:45:58;;;;;;;11.82;7.65;;;;;;;;;;4957025;29;20030;-82
2022/01/24 08:48:24;;;;;;;14.35;8.35;;;;;;;;;;4965583;28;20074;-80
2022/01/24 08:51:01;;;;;;;17.83;8.95;;;;;;;;;;5005294;28;20045;-78
2022/01/24 08:54:05;;;;;;;19.48;9.60;;;;;;;;;;5005105;28;20121;-80
2022/01/24 08:56:47;;;;;;;19.38;11.15;;;;;;;;;;5001430;28;20117;-82
2022/01/24 08:59:15;;;;;;;17.65;9.65;;;;;;;;;;4998765;28;20129;-82
2022/01/24 09:01:47;;;;;;;16.13;9.40;;;;;;;;;;4998705;28;20037;-81
2022/01/24 09:04:12;;;;;;;16.95;8.77;;;;;;;;;;4997603;28;20028;-83
2022/01/24 09:06:55;;;;;;;15.20;8.32;;;;;;;;;;4996531;28;20109;-83
2022/01/24 09:09:33;;;;;;;13.82;7.70;;;;;;;;;;5015753;28;20479;-81
2022/01/24 09:12:11;;;;;;;13.60;7.60;;;;;;;;;;4997592;28;20041;-81
2022/01/24 09:14:43;;;;;;;12.35;7.57;;;;;;;;;;4998699;28;20126;-81
2022/01/24 09:17:10;;;;;;;13.88;8.10;;;;;;;;;;5000402;28;20022;-78
2022/01/24 09:19:35;;;;;;;12.38;7.60;;;;;;;;;;5019469;28;20022;-81
2022/01/24 09:22:03;;;;;;;11.68;6.97;;;;;;;;;;5016903;28;20029;-79
2022/01/24 09:24:28;;;;;;;11.63;6.90;;;;;;;;;;5015956;28;20033;-80
2022/01/24 09:26:54;;;;;;;11.07;6.65;;;;;;;;;;5016180;28;20026;-80
2022/01/24 09:29:19;;;;;;;11.48;6.80;;;;;;;;;;5016080;28;20018;-80
2022/01/24 09:31:44;;;;;;;11.38;6.53;;;;;;;;;;4998252;28;20093;-79
2022/01/24 09:34:10;;;;;;;12.90;6.70;;;;;;;;;;4998310;28;20471;-80
2022/01/24 09:36:35;;;;;;;13.82;7.35;;;;;;;;;;5016182;28;20060;-81
2022/01/24 09:39:01;;;;;;;13.90;7.65;;;;;;;;;;5017449;28;20034;-78
2022/01/24 09:41:33;;;;;;;10.10;6.25;;;;;;;;;;4999996;28;20543;-79
2022/01/24 09:43:59;;;;;;;13.00;6.38;;;;;;;;;;5018905;28;20026;-78
2022/01/24 09:46:24;;;;;;;8.75;5.97;;;;;;;;;;5018007;28;20029;-82
2022/01/24 09:48:56;;;;;;;9.68;6.05;;;;;;;;;;5000290;28;20054;-81
2022/01/24 09:51:21;;;;;;;10.70;6.45;;;;;;;;;;5017365;28;20132;-79
2022/01/24 09:53:47;;;;;;;10.45;6.68;;;;;;;;;;5017782;28;20033;-80
2022/01/24 09:56:12;;;;;;;12.77;6.38;;;;;;;;;;5018107;28;20041;-80
2022/01/24 09:58:37;;;;;;;9.05;6.10;;;;;;;;;;5017494;28;20044;-82
2022/01/24 10:01:05;;;;;;;10.90;6.50;;;;;;;;;;5017761;28;20022;-81
2022/01/24 10:03:30;;;;;;;9.32;5.78;;;;;;;;;;5017510;28;20111;-80
2022/01/24 10:05:56;;;;;;;8.85;5.82;;;;;;;;;;5017130;28;20054;-80
2022/01/24 10:08:25;;;;;;;10.82;5.85;;;;;;;;;;5017525;28;20026;-78
2022/01/24 10:10:56;;;;;;;6.82;4.60;;;;;;;;;;5017223;28;20134;-78
2022/01/24 10:16:44;;;;;;;8.55;4.95;;;;;;;;;;4998388;28;20038;-80
2022/01/24 10:19:16;;;;;;;9.95;5.20;;;;;;;;;;5004231;28;20033;-81
2022/01/24 10:21:41;;;;;;;10.65;5.88;;;;;;;;;;5021318;28;20036;-81
2022/01/24 10:24:08;;;;;;;9.27;5.07;;;;;;;;;;5003783;28;20025;-81
2022/01/24 10:26:33;;;;;;;8.40;5.18;;;;;;;;;;5004500;28;20251;-80
2022/01/24 10:28:58;;;;;;;7.72;4.70;;;;;;;;;;5021674;28;20021;-80
2022/01/24 10:31:28;;;;;;;9.52;4.47;;;;;;;;;;5021703;28;20026;-80
2022/01/24 10:34:24;;;;;;;6.97;4.53;;;;;;;;;;5021159;28;20029;-78
2022/01/24 10:36:53;;;;;;;7.50;4.78;;;;;;;;;;5021180;28;20433;-81
2022/01/24 10:39:32;;;;;;;7.93;4.50;;;;;;;;;;5020994;28;20088;-81
2022/01/24 10:42:30;;;;;;;6.90;4.60;;;;;;;;;;5020649;28;20059;-82
2022/01/24 10:45:24;;;;;;;11.27;4.13;;;;;;;;;;5002764;28;20029;-80
2022/01/24 10:47:52;;;;;;;6.18;3.95;;;;;;;;;;5018239;28;20122;-82
2022/01/24 10:50:24;;;;;;;7.78;4.82;;;;;;;;;;5019949;28;20026;-82
2022/01/24 10:52:51;;;;;;;6.97;4.65;;;;;;;;;;5020062;28;20065;-81
2022/01/24 10:55:18;;;;;;;7.05;4.82;;;;;;;;;;5020305;28;20022;-82
2022/01/24 10:57:47;;;;;;;8.80;4.97;;;;;;;;;;5020138;28;20048;-81
2022/01/24 11:00:23;;;;;;;9.65;4.70;;;;;;;;;;5020834;28;20528;-82
2022/01/24 11:02:53;;;;;;;7.07;4.32;;;;;;;;;;5020916;28;20033;-80
2022/01/24 11:05:21;;;;;;;6.88;4.40;;;;;;;;;;5020822;28;20026;-79
2022/01/24 11:07:59;;;;;;;8.93;4.10;;;;;;;;;;5019813;28;20102;-78
2022/01/24 11:10:27;;;;;;;5.60;3.33;;;;;;;;;;5019956;28;20113;-80
2022/01/24 11:12:52;;;;;;;4.93;3.63;;;;;;;;;;5019544;28;20081;-79
2022/01/24 11:15:20;;;;;;;6.15;3.50;;;;;;;;;;5002392;28;20062;-80
2022/01/24 11:17:47;;;;;;;4.40;3.13;;;;;;;;;;5019629;28;20065;-80
2022/01/24 11:20:16;;;;;;;5.18;3.30;;;;;;;;;;5019663;28;20043;-80
2022/01/24 11:22:49;;;;;;;5.95;2.92;;;;;;;;;;5019691;28;20129;-80
2022/01/24 11:25:15;;;;;;;8.40;2.90;;;;;;;;;;5019682;28;20022;-79
2022/01/24 11:27:43;;;;;;;3.92;2.83;;;;;;;;;;5018732;28;20096;-79
2022/01/24 11:30:14;;;;;;;5.22;3.50;;;;;;;;;;5001143;28;20040;-80
2022/01/24 11:32:49;;;;;;;4.85;3.63;;;;;;;;;;5019154;28;20112;-78
2022/01/24 11:35:29;;;;;;;4.38;3.17;;;;;;;;;;5018845;28;20036;-80
2022/01/24 11:37:58;;;;;;;5.38;3.67;;;;;;;;;;5020157;28;20026;-80
2022/01/24 11:40:24;;;;;;;7.03;4.40;;;;;;;;;;5019455;28;20037;-80
2022/01/24 11:42:51;;;;;;;6.97;4.15;;;;;;;;;;5001852;28;20033;-81
2022/01/24 11:45:33;;;;;;;7.55;4.63;;;;;;;;;;5019432;28;20030;-80
2022/01/24 11:48:18;;;;;;;6.97;4.43;;;;;;;;;;5019018;28;20029;-80
2022/01/24 11:50:54;;;;;;;7.18;4.25;;;;;;;;;;5018479;28;20037;-78
2022/01/24 11:53:27;;;;;;;6.15;4.15;;;;;;;;;;5001475;28;20068;-78
2022/01/24 11:55:55;;;;;;;6.18;3.83;;;;;;;;;;5018742;28;20105;-80
2022/01/24 11:58:30;;;;;;;5.90;4.25;;;;;;;;;;5019631;28;20495;-80
2022/01/24 12:01:02;;;;;;;6.75;4.30;;;;;;;;;;5018878;28;20423;-80
2022/01/24 12:03:28;;;;;;;6.63;4.47;;;;;;;;;;5019055;28;20025;-80
2022/01/24 12:05:56;;;;;;;6.10;4.07;;;;;;;;;;5019276;28;20537;-80
2022/01/24 12:08:31;;;;;;;8.23;4.05;;;;;;;;;;5019291;28;20079;-79
2022/01/24 12:11:19;;;;;;;7.18;4.30;;;;;;;;;;5018980;28;20084;-81
2022/01/24 12:13:56;;;;;;;5.63;3.70;;;;;;;;;;5018946;28;20391;-80
2022/01/24 12:16:33;;;;;;;5.72;4.10;;;;;;;;;;5002235;28;20022;-81
2022/01/24 12:19:00;;;;;;;6.15;4.13;;;;;;;;;;5020517;28;20029;-79
2022/01/24 12:21:27;;;;;;;5.47;4.00;;;;;;;;;;5003173;28;20013;-80
2022/01/24 12:23:59;;;;;;;4.90;3.42;;;;;;;;;;5002534;28;20048;-80
2022/01/24 12:26:27;;;;;;;7.00;3.72;;;;;;;;;;5001162;28;20025;-81
2022/01/24 12:29:01;;;;;;;7.50;3.85;;;;;;;;;;5001448;28;20395;-79
2022/01/24 12:31:29;;;;;;;5.90;3.92;;;;;;;;;;5018649;28;20060;-79
2022/01/24 12:33:54;;;;;;;7.28;3.22;;;;;;;;;;5001015;28;20040;-79
2022/01/24 12:36:47;;;;;;;5.07;3.63;;;;;;;;;;5018080;28;20082;-79
2022/01/24 12:39:17;;;;;;;6.50;3.33;;;;;;;;;;4999700;28;20030;-78
2022/01/24 12:41:48;;;;;;;6.63;3.58;;;;;;;;;;4999654;28;20022;-79
2022/01/24 12:47:04;;;;;;;6.45;3.65;;;;;;;;;;5017516;28;20036;-80
2022/01/24 12:49:30;;;;;;;4.57;3.50;;;;;;;;;;5017183;28;20454;-80
2022/01/24 12:51:58;;;;;;;4.38;3.00;;;;;;;;;;5000436;28;20036;-79
2022/01/24 12:54:34;;;;;;;6.18;3.10;;;;;;;;;;5018792;28;20026;-79
2022/01/24 12:57:06;;;;;;;6.40;3.53;;;;;;;;;;5019154;28;20036;-79
2022/01/24 12:59:32;;;;;;;6.20;3.05;;;;;;;;;;5019024;28;20495;-80
2022/01/24 13:02:01;;;;;;;4.90;3.22;;;;;;;;;;5018966;28;20105;-78
2022/01/24 13:04:39;;;;;;;4.75;3.30;;;;;;;;;;5020345;28;20043;-80
2022/01/24 13:07:07;;;;;;;4.00;2.80;;;;;;;;;;5000856;28;20021;-79
2022/01/24 13:09:35;;;;;;;4.22;2.80;;;;;;;;;;5001816;28;20125;-79
2022/01/24 13:12:05;;;;;;;9.75;2.75;;;;;;;;;;5018590;28;20041;-79
2022/01/24 13:25:09;;;;;;;6.28;3.30;;;;;;;;;;5017514;28;20380;-79
2022/01/24 13:27:55;;;;;;;6.82;3.30;;;;;;;;;;5000093;28;20025;-80
2022/01/24 13:30:24;;;;;;;7.88;3.20;;;;;;;;;;5017545;28;20092;-80
2022/01/24 13:32:55;;;;;;;7.20;3.47;;;;;;;;;;4999611;28;20022;-79
2022/01/24 13:35:26;;;;;;;4.78;3.17;;;;;;;;;;4999719;28;20484;-80
2022/01/24 13:37:55;;;;;;;4.63;2.95;;;;;;;;;;5016662;28;20026;-81
2022/01/24 13:40:31;;;;;;;4.75;2.95;;;;;;;;;;5017196;28;20083;-78
2022/01/24 13:42:57;;;;;;;4.05;3.03;;;;;;;;;;5017361;28;20049;-79
2022/01/24 13:45:22;;;;;;;3.90;2.75;;;;;;;;;;5017404;28;20026;-80
2022/01/24 13:48:02;;;;;;;5.35;2.80;;;;;;;;;;4999663;28;20041;-80
2022/01/24 13:50:28;;;;;;;7.93;3.35;;;;;;;;;;5017325;28;20492;-79
2022/01/24 13:52:54;;;;;;;6.45;3.20;;;;;;;;;;5019800;28;20026;-80
2022/01/24 13:55:25;;;;;;;5.20;3.13;;;;;;;;;;5020555;28;20100;-78
2022/01/24 13:57:52;;;;;;;5.68;3.47;;;;;;;;;;5020345;28;20359;-80
2022/01/24 14:00:28;;;;;;;7.03;3.25;;;;;;;;;;5020942;28;20434;-80
2022/01/24 14:03:06;;;;;;;6.70;3.13;;;;;;;;;;5020707;28;20422;-80
2022/01/24 14:05:31;;;;;;;6.20;3.17;;;;;;;;;;5020533;28;20100;-78
2022/01/24 14:08:12;;;;;;;7.43;3.53;;;;;;;;;;5020792;28;20547;-79
2022/01/24 14:10:37;;;;;;;6.18;3.63;;;;;;;;;;5002869;28;20427;-80
2022/01/24 14:13:04;;;;;;;5.97;3.25;;;;;;;;;;5020754;28;20018;-80
2022/01/24 14:15:51;;;;;;;6.03;3.97;;;;;;;;;;5020961;28;20030;-80
2022/01/24 14:18:28;;;;;;;8.60;4.57;;;;;;;;;;5021197;28;20029;-80
2022/01/24 14:20:55;;;;;;;8.98;4.22;;;;;;;;;;5020979;28;20018;-80
2022/01/24 14:23:37;;;;;;;7.65;4.18;;;;;;;;;;5021874;28;20076;-79
2022/01/24 14:26:16;;;;;;;5.90;3.33;;;;;;;;;;5021201;28;20022;-79
2022/01/24 14:28:42;;;;;;;5.95;3.30;;;;;;;;;;5021643;28;20392;-80
2022/01/24 14:31:13;;;;;;;4.90;2.83;;;;;;;;;;5002896;28;20030;-79
2022/01/24 14:33:41;;;;;;;7.35;2.97;;;;;;;;;;5020794;28;20032;-79
2022/01/24 14:36:12;;;;;;;13.48;3.47;;;;;;;;;;5020458;28;20368;-80
2022/01/24 14:38:45;;;;;;;5.82;3.75;;;;;;;;;;5003754;28;20032;-80
2022/01/24 14:41:38;;;;;;;4.55;3.25;;;;;;;;;;5003506;28;20025;-79
2022/01/24 14:46:50;;;;;;;5.40;3.20;;;;;;;;;;5021359;28;20044;-80
2022/01/24 14:49:19;;;;;;;4.68;3.13;;;;;;;;;;5020918;28;20096;-81
2022/01/24 14:51:46;;;;;;;6.65;3.05;;;;;;;;;;5020270;28;20026;-79
2022/01/24 14:54:17;;;;;;;6.68;2.70;;;;;;;;;;5020649;28;20025;-80
2022/01/24 14:56:44;;;;;;;4.35;2.92;;;;;;;;;;5003629;28;20116;-79
2022/01/24 14:59:10;;;;;;;4.85;3.40;;;;;;;;;;5021588;28;20026;-79
2022/01/24 15:01:36;;;;;;;7.35;3.30;;;;;;;;;;5022105;28;20464;-81
2022/01/24 15:04:02;;;;;;;5.40;3.47;;;;;;;;;;5002192;28;20029;-80
2022/01/24 15:06:28;;;;;;;5.95;3.08;;;;;;;;;;5022590;28;20064;-80
2022/01/24 15:08:58;;;;;;;7.25;2.83;;;;;;;;;;5022926;28;20380;-80
2022/01/24 15:11:28;;;;;;;5.50;3.47;;;;;;;;;;5022488;28;20026;-80
2022/01/24 15:13:57;;;;;;;5.53;3.42;;;;;;;;;;5004573;28;20026;-81
2022/01/24 15:16:41;;;;;;;5.95;3.53;;;;;;;;;;5004681;28;20487;-81
2022/01/24 15:25:16;;;;;;;8.07;4.60;;;;;;;;;;5021357;28;20029;-81
2022/01/24 15:27:20;;;;;;;5.80;3.15;;;;;;;;;;5018756;28;20029;-80
2022/01/24 15:29:45;;;;;;;9.75;4.18;;;;;;;;;;5019783;28;20022;-80
2022/01/24 15:32:10;;;;;;;6.25;4.07;;;;;;;;;;5019686;28;20029;-81
2022/01/24 15:34:37;;;;;;;9.98;4.50;;;;;;;;;;5019828;28;20024;-80
2022/01/24 15:37:05;;;;;;;12.52;4.47;;;;;;;;;;5020667;28;20103;-81
2022/01/24 15:39:31;;;;;;;8.05;4.43;;;;;;;;;;5020274;28;20032;-79
2022/01/24 15:42:01;;;;;;;6.65;3.90;;;;;;;;;;5021106;28;20076;-79
2022/01/24 15:47:00;;;;;;;7.80;4.50;;;;;;;;;;5020299;28;20505;-81
2022/01/24 15:49:26;;;;;;;6.68;4.30;;;;;;;;;;5003956;28;20025;-80
2022/01/24 15:51:53;;;;;;;7.10;4.15;;;;;;;;;;5019514;28;20030;-79
2022/01/24 15:54:21;;;;;;;6.05;3.90;;;;;;;;;;5020054;28;20026;-80
2022/01/24 15:59:30;;;;;;;5.90;3.42;;;;;;;;;;5021978;28;20068;-81
2022/01/24 16:01:57;;;;;;;3.83;2.80;;;;;;;;;;5020560;28;20041;-81
2022/01/24 16:04:23;;;;;;;5.00;2.75;;;;;;;;;;5003443;28;20255;-80
2022/01/24 16:06:48;;;;;;;4.30;2.70;;;;;;;;;;5020370;28;20534;-80
2022/01/24 16:09:13;;;;;;;4.93;2.38;;;;;;;;;;5020771;28;20026;-79
2022/01/24 16:11:41;;;;;;;4.60;2.40;;;;;;;;;;5020158;28;20022;-80
2022/01/24 16:14:08;;;;;;;2.38;1.90;;;;;;;;;;5019182;28;20033;-79
2022/01/24 16:16:35;;;;;;;4.00;2.08;;;;;;;;;;5020575;28;20049;-79
2022/01/24 16:19:03;;;;;;;2.90;2.08;;;;;;;;;;5019054;28;20087;-80
2022/01/24 16:21:38;;;;;;;3.60;2.17;;;;;;;;;;5018903;28;20026;-80
2022/01/24 16:26:44;;;;;;;6.57;2.30;;;;;;;;;;5019450;28;20028;-80
2022/01/24 16:29:10;;;;;;;3.45;1.92;;;;;;;;;;5019345;28;20045;-81
2022/01/24 16:31:35;;;;;;;3.40;2.30;;;;;;;;;;5019216;28;20025;-80
2022/01/24 16:34:05;;;;;;;2.58;1.85;;;;;;;;;;5019587;28;20498;-80
2022/01/24 16:36:30;;;;;;;4.88;2.30;;;;;;;;;;5019560;28;20028;-80
2022/01/24 16:38:56;;;;;;;4.43;2.30;;;;;;;;;;5019200;28;20109;-79
2022/01/24 16:41:32;;;;;;;3.80;2.45;;;;;;;;;;5019547;28;20033;-80
2022/01/24 16:44:15;;;;;;;3.63;2.25;;;;;;;;;;5001358;28;20116;-79
2022/01/24 16:49:24;;;;;;;2.55;1.70;;;;;;;;;;5018846;28;20033;-80
2022/01/24 16:51:51;;;;;;;3.40;2.00;;;;;;;;;;5018515;28;20026;-80
2022/01/24 16:54:18;;;;;;;3.60;2.15;;;;;;;;;;5018867;28;20050;-78
2022/01/24 16:56:45;;;;;;;4.15;2.20;;;;;;;;;;5001102;28;20471;-79